Time;durP1;ratioP1;P1;durP2;ratioP2;P2;SDS_P1;SDS_P2;PMS_P1;PMS_P2;Temp;Humidity;BMP_temperature;BMP_pressure;BME280_temperature;BME280_humidity;BME280_pressure;Samples;Min_cycle;Max_cycle;Signal;HPM_P1;HPM_P2
2022/07/01 00:00:24;;;;;;;;;;;;;;;;;;1037710;28;3789;-47
2022/07/01 00:01:06;;;;;;;;;;;;;;;;;;1040212;28;1602;-45
2022/07/01 00:01:37;;;;;;;;;;;;;;;;;;1037232;28;3034;-49
2022/07/01 00:02:07;;;;;;;;;;;;;;;;;;1038928;28;4691;-47
2022/07/01 00:02:38;;;;;;;;;;;;;;;;;;1039085;28;3460;-46
2022/07/01 00:03:08;;;;;;;;;;;;;;;;;;1041032;28;2126;-46
2022/07/01 00:03:38;;;;;;;;;;;;;;;;;;1041674;28;1942;-46
2022/07/01 00:04:09;;;;;;;;;;;;;;;;;;1042463;28;1698;-48
2022/07/01 00:04:39;;;;;;;;;;;;;;;;;;1039400;28;2376;-48
2022/07/01 00:05:09;;;;;;;;;;;;;;;;;;1040599;28;1619;-47
2022/07/01 00:05:39;;;;;;;;;;;;;;;;;;1038277;28;3916;-48
2022/07/01 00:06:10;;;;;;;;;;;;;;;;;;1040841;28;2053;-48
2022/07/01 00:06:40;;;;;;;;;;;;;;;;;;1039636;28;3363;-45
2022/07/01 00:07:11;;;;;;;;;;;;;;;;;;1038476;28;3039;-46
2022/07/01 00:07:42;;;;;;;;;;;;;;;;;;1041586;28;2748;-49
2022/07/01 00:08:12;;;;;;;;;;;;;;;;;;1043614;28;2600;-46
2022/07/01 00:08:42;;;;;;;;;;;;;;;;;;1042536;28;2293;-48
2022/07/01 00:09:13;;;;;;;;;;;;;;;;;;1041695;28;1690;-45
2022/07/01 00:09:43;;;;;;;;;;;;;;;;;;1041264;28;1731;-46
2022/07/01 00:10:14;;;;;;;;;;;;;;;;;;1042575;28;2239;-45
2022/07/01 00:10:44;;;;;;;;;;;;;;;;;;1039890;28;3034;-48
2022/07/01 00:11:14;;;;;;;;;;;;;;;;;;1040068;28;1761;-45
2022/07/01 00:11:45;;;;;;;;;;;;;;;;;;1040186;28;2939;-47
2022/07/01 00:12:15;;;;;;;;;;;;;;;;;;1039411;28;3729;-45
2022/07/01 00:12:46;;;;;;;;;;;;;;;;;;1039158;28;3437;-46
2022/07/01 00:13:16;;;;;;;;;;;;;;;;;;1040418;28;1738;-49
2022/07/01 00:13:47;;;;;;;;;;;;;;;;;;1038228;28;3767;-49
2022/07/01 00:14:17;;;;;;;;;;;;;;;;;;1040128;28;3267;-46
2022/07/01 00:14:47;;;;;;;;;;;;;;;;;;1039941;28;1537;-45
2022/07/01 00:15:17;;;;;;;;;;;;;;;;;;1039091;28;4442;-49
2022/07/01 00:15:48;;;;;;;;;;;;;;;;;;1039911;28;3662;-47
2022/07/01 00:16:18;;;;;;;;;;;;;;;;;;1039638;28;3132;-45
2022/07/01 00:16:49;;;;;;;;;;;;;;;;;;1042563;28;2901;-47
2022/07/01 00:17:19;;;;;;;;;;;;;;;;;;1044346;28;2981;-45
2022/07/01 00:17:49;;;;;;;;;;;;;;;;;;1043497;28;2833;-49
2022/07/01 00:18:21;;;;;;;;;;;;;;;;;;1042887;28;2039;-48
2022/07/01 00:18:51;;;;;;;;;;;;;;;;;;1039056;28;1822;-46
2022/07/01 00:19:21;;;;;;;;;;;;;;;;;;1040298;28;1786;-46
2022/07/01 00:19:52;;;;;;;;;;;;;;;;;;1037564;28;2885;-48
2022/07/01 00:20:22;;;;;;;;;;;;;;;;;;1039677;28;3630;-45
2022/07/01 00:20:52;;;;;;;;;;;;;;;;;;1039209;28;1851;-46
2022/07/01 00:21:22;;;;;;;;;;;;;;;;;;1039822;28;2127;-45
2022/07/01 00:21:53;;;;;;;;;;;;;;;;;;1038523;28;3627;-49
2022/07/01 00:22:23;;;;;;;;;;;;;;;;;;1042899;28;3791;-45
2022/07/01 00:22:54;;;;;;;;;;;;;;;;;;1038729;28;2996;-46
2022/07/01 00:23:24;;;;;;;;;;;;;;;;;;1039713;28;2805;-47
2022/07/01 00:23:54;;;;;;;;;;;;;;;;;;1040548;28;2154;-48
2022/07/01 00:24:24;;;;;;;;;;;;;;;;;;1041786;28;3309;-45
2022/07/01 00:24:55;;;;;;;;;;;;;;;;;;1041174;28;3018;-47
2022/07/01 00:25:39;;;;;;;;;;;;;;;;;;1040668;28;3371;-48
2022/07/01 00:26:16;;;;;;;;;;;;;;;;;;1039684;28;1866;-46
2022/07/01 00:26:46;;;;;;;;;;;;;;;;;;1038815;28;2530;-48
2022/07/01 00:27:16;;;;;;;;;;;;;;;;;;1039099;28;1754;-46
2022/07/01 00:27:47;;;;;;;;;;;;;;;;;;1044416;28;1587;-45
2022/07/01 00:28:17;;;;;;;;;;;;;;;;;;1042916;28;3132;-47
2022/07/01 00:28:47;;;;;;;;;;;;;;;;;;1043439;28;2436;-47
2022/07/01 00:29:17;;;;;;;;;;;;;;;;;;1044233;28;1882;-48
2022/07/01 00:29:48;;;;;;;;;;;;;;;;;;1040655;28;2222;-47
2022/07/01 00:30:18;;;;;;;;;;;;;;;;;;1039606;28;3123;-47
2022/07/01 00:30:49;;;;;;;;;;;;;;;;;;1039251;28;3937;-48
2022/07/01 00:31:19;;;;;;;;;;;;;;;;;;1037827;28;3011;-48
2022/07/01 00:31:49;;;;;;;;;;;;;;;;;;1038311;28;3879;-47
2022/07/01 00:32:19;;;;;;;;;;;;;;;;;;1037818;28;3756;-48
2022/07/01 00:32:52;;;;;;;;;;;;;;;;;;1039285;28;3702;-47
2022/07/01 00:33:23;;;;;;;;;;;;;;;;;;1037917;28;2894;-48
2022/07/01 00:33:53;;;;;;;;;;;;;;;;;;1036714;28;2695;-46
2022/07/01 00:34:23;;;;;;;;;;;;;;;;;;1039154;28;3896;-46
2022/07/01 00:35:00;;;;;;;;;;;;;;;;;;1040616;28;2131;-49
2022/07/01 00:35:31;;;;;;;;;;;;;;;;;;1040207;28;4147;-46
2022/07/01 00:36:01;;;;;;;;;;;;;;;;;;1039237;28;2836;-46
2022/07/01 00:36:31;;;;;;;;;;;;;;;;;;1039528;28;2197;-50
2022/07/01 00:37:02;;;;;;;;;;;;;;;;;;1038853;28;3210;-47
2022/07/01 00:37:32;;;;;;;;;;;;;;;;;;1040167;28;3401;-47
2022/07/01 00:38:03;;;;;;;;;;;;;;;;;;1040350;28;3211;-49
2022/07/01 00:38:33;;;;;;;;;;;;;;;;;;1040236;28;2168;-49
2022/07/01 00:39:03;;;;;;;;;;;;;;;;;;1040687;28;2288;-46
2022/07/01 00:39:34;;;;;;;;;;;;;;;;;;1039278;28;3091;-50
2022/07/01 00:40:04;;;;;;;;;;;;;;;;;;1040336;28;3128;-47
2022/07/01 00:40:34;;;;;;;;;;;;;;;;;;1038625;28;3167;-50
2022/07/01 00:41:05;;;;;;;;;;;;;;;;;;1040533;28;2778;-48
2022/07/01 00:41:35;;;;;;;;;;;;;;;;;;1040438;28;2521;-47
2022/07/01 00:42:06;;;;;;;;;;;;;;;;;;1039549;28;3895;-48
2022/07/01 00:42:40;;;;;;;;;;;;;;;;;;1039657;28;3616;-47
2022/07/01 00:43:10;;;;;;;;;;;;;;;;;;1040785;28;1651;-47
2022/07/01 00:43:41;;;;;;;;;;;;;;;;;;1038706;28;2221;-49
2022/07/01 00:44:20;;;;;;;;;;;;;;;;;;1039281;28;3713;-45
2022/07/01 00:44:50;;;;;;;;;;;;;;;;;;1037887;28;3636;-47
2022/07/01 00:45:20;;;;;;;;;;;;;;;;;;1038472;28;2543;-48
2022/07/01 00:45:52;;;;;;;;;;;;;;;;;;1040822;28;1621;-49
2022/07/01 00:46:24;;;;;;;;;;;;;;;;;;1039552;28;2674;-47
2022/07/01 00:46:55;;;;;;;;;;;;;;;;;;1040177;28;2747;-49
2022/07/01 00:47:26;;;;;;;;;;;;;;;;;;1038819;28;2757;-51
2022/07/01 00:47:56;;;;;;;;;;;;;;;;;;1039043;28;3016;-49
2022/07/01 00:48:27;;;;;;;;;;;;;;;;;;1040589;28;1653;-48
2022/07/01 00:48:58;;;;;;;;;;;;;;;;;;1036628;28;1889;-46
2022/07/01 00:49:28;;;;;;;;;;;;;;;;;;1035081;28;4641;-46
2022/07/01 00:49:59;;;;;;;;;;;;;;;;;;1035998;28;2458;-46
2022/07/01 00:50:29;;;;;;;;;;;;;;;;;;1036860;28;2598;-46
2022/07/01 00:50:59;;;;;;;;;;;;;;;;;;1040009;28;1683;-48
2022/07/01 00:51:29;;;;;;;;;;;;;;;;;;1040050;28;2736;-49
2022/07/01 00:52:00;;;;;;;;;;;;;;;;;;1038788;28;3457;-46
2022/07/01 00:52:30;;;;;;;;;;;;;;;;;;1039093;28;3791;-50
2022/07/01 00:53:00;;;;;;;;;;;;;;;;;;1040489;28;3914;-47
2022/07/01 00:53:31;;;;;;;;;;;;;;;;;;1041239;28;3307;-46
2022/07/01 00:54:02;;;;;;;;;;;;;;;;;;1041574;28;3324;-49
2022/07/01 00:54:34;;;;;;;;;;;;;;;;;;1041458;28;2191;-48
2022/07/01 00:55:07;;;;;;;;;;;;;;;;;;1036016;28;2236;-46
2022/07/01 00:55:37;;;;;;;;;;;;;;;;;;1036348;28;2338;-48
2022/07/01 00:56:07;;;;;;;;;;;;;;;;;;1043716;28;4122;-49
2022/07/01 00:56:38;;;;;;;;;;;;;;;;;;1042577;28;2617;-49
2022/07/01 00:57:09;;;;;;;;;;;;;;;;;;1048171;28;3075;-47
2022/07/01 00:57:40;;;;;;;;;;;;;;;;;;1046013;28;5446;-48
2022/07/01 00:58:10;;;;;;;;;;;;;;;;;;1038798;28;3703;-46
2022/07/01 00:58:40;;;;;;;;;;;;;;;;;;1039952;28;2257;-47
2022/07/01 00:59:11;;;;;;;;;;;;;;;;;;1039109;28;4354;-47
2022/07/01 00:59:41;;;;;;;;;;;;;;;;;;1038555;28;3381;-48
2022/07/01 01:00:13;;;;;;;;;;;;;;;;;;1039527;28;2843;-45
2022/07/01 01:00:43;;;;;;;;;;;;;;;;;;1039264;28;2668;-47
2022/07/01 01:01:13;;;;;;;;;;;;;;;;;;1039601;28;3905;-49
2022/07/01 01:01:44;;;;;;;;;;;;;;;;;;1039079;28;2622;-46
2022/07/01 01:02:14;;;;;;;;;;;;;;;;;;1039944;28;3386;-47
2022/07/01 01:02:44;;;;;;;;;;;;;;;;;;1038728;28;2799;-47
2022/07/01 01:03:14;;;;;;;;;;;;;;;;;;1039682;28;3204;-47
2022/07/01 01:03:45;;;;;;;;;;;;;;;;;;1038749;28;2487;-48
2022/07/01 01:04:15;;;;;;;;;;;;;;;;;;1039308;28;4015;-49
2022/07/01 01:04:46;;;;;;;;;;;;;;;;;;1038543;28;3282;-48
2022/07/01 01:05:23;;;;;;;;;;;;;;;;;;1040472;28;1655;-48
2022/07/01 01:05:54;;;;;;;;;;;;;;;;;;1041283;28;2066;-50
2022/07/01 01:06:25;;;;;;;;;;;;;;;;;;1038726;28;2774;-47
2022/07/01 01:06:56;;;;;;;;;;;;;;;;;;1041175;28;3745;-45
2022/07/01 01:07:26;;;;;;;;;;;;;;;;;;1038979;28;4020;-47
2022/07/01 01:07:57;;;;;;;;;;;;;;;;;;1040275;28;2694;-48
2022/07/01 01:08:28;;;;;;;;;;;;;;;;;;1038488;28;2328;-50
2022/07/01 01:08:58;;;;;;;;;;;;;;;;;;1039184;28;3716;-46
2022/07/01 01:09:30;;;;;;;;;;;;;;;;;;1039198;28;3104;-49
2022/07/01 01:10:01;;;;;;;;;;;;;;;;;;1039770;28;3344;-50
2022/07/01 01:10:31;;;;;;;;;;;;;;;;;;1040050;28;2021;-46
2022/07/01 01:11:03;;;;;;;;;;;;;;;;;;1039811;28;2338;-50
2022/07/01 01:11:33;;;;;;;;;;;;;;;;;;1040412;28;3317;-50
2022/07/01 01:12:04;;;;;;;;;;;;;;;;;;1044402;28;2035;-48
2022/07/01 01:12:34;;;;;;;;;;;;;;;;;;1041235;28;3362;-47
2022/07/01 01:13:04;;;;;;;;;;;;;;;;;;1044172;28;3061;-47
2022/07/01 01:13:35;;;;;;;;;;;;;;;;;;1042155;28;3465;-48
2022/07/01 01:14:05;;;;;;;;;;;;;;;;;;1039876;28;1602;-47
2022/07/01 01:14:46;;;;;;;;;;;;;;;;;;1040771;28;3398;-47
2022/07/01 01:15:19;;;;;;;;;;;;;;;;;;1042769;28;2772;-48
2022/07/01 01:15:49;;;;;;;;;;;;;;;;;;1043476;28;1682;-47
2022/07/01 01:16:20;;;;;;;;;;;;;;;;;;1044053;28;1584;-46
2022/07/01 01:16:51;;;;;;;;;;;;;;;;;;1044462;28;2693;-51
2022/07/01 01:17:22;;;;;;;;;;;;;;;;;;1047318;28;4198;-48
2022/07/01 01:17:52;;;;;;;;;;;;;;;;;;1047269;28;4092;-48
2022/07/01 01:18:22;;;;;;;;;;;;;;;;;;1047953;28;3198;-48
2022/07/01 01:18:53;;;;;;;;;;;;;;;;;;1046923;28;2503;-49
2022/07/01 01:19:23;;;;;;;;;;;;;;;;;;1039525;28;2951;-48
2022/07/01 01:19:54;;;;;;;;;;;;;;;;;;1039298;28;3735;-50
2022/07/01 01:20:24;;;;;;;;;;;;;;;;;;1038716;28;4097;-49
2022/07/01 01:20:54;;;;;;;;;;;;;;;;;;1040283;28;3264;-50
2022/07/01 01:21:25;;;;;;;;;;;;;;;;;;1039004;28;4663;-46
2022/07/01 01:21:55;;;;;;;;;;;;;;;;;;1039866;28;2770;-46
2022/07/01 01:22:25;;;;;;;;;;;;;;;;;;1039506;28;3490;-48
2022/07/01 01:22:56;;;;;;;;;;;;;;;;;;1039430;28;4435;-47
2022/07/01 01:23:26;;;;;;;;;;;;;;;;;;1044065;28;2423;-48
2022/07/01 01:23:58;;;;;;;;;;;;;;;;;;1043121;28;3359;-47
2022/07/01 01:24:28;;;;;;;;;;;;;;;;;;1043442;28;3321;-47
2022/07/01 01:24:58;;;;;;;;;;;;;;;;;;1043759;28;2010;-47
2022/07/01 01:25:42;;;;;;;;;;;;;;;;;;1037939;28;4353;-46
2022/07/01 01:26:20;;;;;;;;;;;;;;;;;;1043548;28;3855;-49
2022/07/01 01:26:50;;;;;;;;;;;;;;;;;;1043256;28;4392;-48
2022/07/01 01:27:20;;;;;;;;;;;;;;;;;;1042551;28;3039;-49
2022/07/01 01:27:51;;;;;;;;;;;;;;;;;;1045170;28;1671;-50
2022/07/01 01:28:21;;;;;;;;;;;;;;;;;;1044018;28;2132;-48
2022/07/01 01:28:51;;;;;;;;;;;;;;;;;;1042810;28;2043;-45
2022/07/01 01:29:22;;;;;;;;;;;;;;;;;;1042747;28;3913;-49
2022/07/01 01:29:52;;;;;;;;;;;;;;;;;;1043062;28;2660;-46
2022/07/01 01:30:22;;;;;;;;;;;;;;;;;;1042337;28;2767;-48
2022/07/01 01:30:52;;;;;;;;;;;;;;;;;;1044659;28;2733;-47
2022/07/01 01:31:30;;;;;;;;;;;;;;;;;;1044456;28;2000;-47
2022/07/01 01:32:00;;;;;;;;;;;;;;;;;;1041907;28;3533;-47
2022/07/01 01:32:37;;;;;;;;;;;;;;;;;;1040708;28;4234;-48
2022/07/01 01:33:08;;;;;;;;;;;;;;;;;;1044267;28;1873;-49
2022/07/01 01:33:38;;;;;;;;;;;;;;;;;;1041419;28;4372;-45
2022/07/01 01:34:09;;;;;;;;;;;;;;;;;;1043445;28;2740;-50
2022/07/01 01:34:40;;;;;;;;;;;;;;;;;;1044446;28;2455;-46
2022/07/01 01:35:10;;;;;;;;;;;;;;;;;;1045850;28;1526;-47
2022/07/01 01:35:41;;;;;;;;;;;;;;;;;;1045311;28;1835;-50
2022/07/01 01:36:11;;;;;;;;;;;;;;;;;;1043414;28;2568;-46
2022/07/01 01:36:41;;;;;;;;;;;;;;;;;;1044801;28;3018;-47
2022/07/01 01:37:12;;;;;;;;;;;;;;;;;;1045212;28;1637;-46
2022/07/01 01:37:43;;;;;;;;;;;;;;;;;;1044861;28;2713;-48
2022/07/01 01:38:13;;;;;;;;;;;;;;;;;;1043852;28;2023;-48
2022/07/01 01:38:43;;;;;;;;;;;;;;;;;;1044752;28;2063;-50
2022/07/01 01:39:16;;;;;;;;;;;;;;;;;;1037965;28;3630;-49
2022/07/01 01:39:47;;;;;;;;;;;;;;;;;;1037511;28;2406;-47
2022/07/01 01:40:17;;;;;;;;;;;;;;;;;;1037481;28;3158;-48
2022/07/01 01:40:49;;;;;;;;;;;;;;;;;;1037788;28;3139;-49
2022/07/01 01:41:20;;;;;;;;;;;;;;;;;;1045151;28;2992;-46
2022/07/01 01:41:50;;;;;;;;;;;;;;;;;;1041054;28;3061;-47
2022/07/01 01:42:21;;;;;;;;;;;;;;;;;;1041993;28;3729;-49
2022/07/01 01:42:52;;;;;;;;;;;;;;;;;;1041110;28;2712;-45
2022/07/01 01:43:22;;;;;;;;;;;;;;;;;;1042134;28;2451;-46
2022/07/01 01:43:53;;;;;;;;;;;;;;;;;;1044276;28;2168;-47
2022/07/01 01:44:23;;;;;;;;;;;;;;;;;;1044720;28;2791;-47
2022/07/01 01:44:54;;;;;;;;;;;;;;;;;;1040795;28;2052;-46
2022/07/01 01:45:24;;;;;;;;;;;;;;;;;;1040443;28;3077;-46
2022/07/01 01:45:55;;;;;;;;;;;;;;;;;;1041356;28;2745;-49
2022/07/01 01:46:25;;;;;;;;;;;;;;;;;;1041090;28;1670;-48
2022/07/01 01:46:55;;;;;;;;;;;;;;;;;;1044875;28;1650;-49
2022/07/01 01:47:26;;;;;;;;;;;;;;;;;;1043833;28;3755;-49
2022/07/01 01:47:56;;;;;;;;;;;;;;;;;;1038562;28;2736;-50
2022/07/01 01:48:26;;;;;;;;;;;;;;;;;;1040356;28;2457;-49
2022/07/01 01:48:57;;;;;;;;;;;;;;;;;;1040578;28;3191;-49
2022/07/01 01:49:27;;;;;;;;;;;;;;;;;;1038761;28;1684;-50
2022/07/01 01:49:58;;;;;;;;;;;;;;;;;;1040106;28;2240;-47
2022/07/01 01:50:28;;;;;;;;;;;;;;;;;;1038574;28;3798;-48
2022/07/01 01:50:58;;;;;;;;;;;;;;;;;;1039361;28;3257;-50
2022/07/01 01:51:29;;;;;;;;;;;;;;;;;;1047685;28;2796;-46
2022/07/01 01:51:59;;;;;;;;;;;;;;;;;;1048527;28;3403;-48
2022/07/01 01:52:29;;;;;;;;;;;;;;;;;;1047205;28;4464;-47
2022/07/01 01:53:00;;;;;;;;;;;;;;;;;;1048236;28;4646;-52
2022/07/01 01:53:30;;;;;;;;;;;;;;;;;;1049199;28;1570;-49
2022/07/01 01:54:00;;;;;;;;;;;;;;;;;;1049383;28;2894;-47
2022/07/01 01:54:31;;;;;;;;;;;;;;;;;;1048421;28;1790;-48
2022/07/01 01:55:01;;;;;;;;;;;;;;;;;;1047658;28;1596;-48
2022/07/01 01:55:31;;;;;;;;;;;;;;;;;;1037711;28;3193;-50
2022/07/01 01:56:01;;;;;;;;;;;;;;;;;;1037029;28;3417;-45
2022/07/01 01:56:32;;;;;;;;;;;;;;;;;;1039260;28;2190;-46
2022/07/01 01:57:05;;;;;;;;;;;;;;;;;;1039986;28;2578;-48
2022/07/01 01:57:35;;;;;;;;;;;;;;;;;;1045168;28;3723;-48
2022/07/01 01:58:05;;;;;;;;;;;;;;;;;;1044571;28;1542;-49
2022/07/01 01:58:36;;;;;;;;;;;;;;;;;;1045516;28;2181;-47
2022/07/01 01:59:06;;;;;;;;;;;;;;;;;;1044683;28;2102;-46
2022/07/01 01:59:37;;;;;;;;;;;;;;;;;;1044746;28;1930;-49
2022/07/01 02:00:07;;;;;;;;;;;;;;;;;;1042881;28;2906;-47
2022/07/01 02:00:38;;;;;;;;;;;;;;;;;;1043499;28;3773;-46
2022/07/01 02:01:09;;;;;;;;;;;;;;;;;;1044204;28;1597;-48
2022/07/01 02:01:39;;;;;;;;;;;;;;;;;;1045985;28;1845;-48
2022/07/01 02:02:10;;;;;;;;;;;;;;;;;;1044862;28;3848;-45
2022/07/01 02:02:40;;;;;;;;;;;;;;;;;;1045060;28;4348;-48
2022/07/01 02:03:11;;;;;;;;;;;;;;;;;;1048130;28;2120;-49
2022/07/01 02:03:42;;;;;;;;;;;;;;;;;;1047181;28;3550;-46
2022/07/01 02:04:12;;;;;;;;;;;;;;;;;;1048619;28;2205;-45
2022/07/01 02:04:42;;;;;;;;;;;;;;;;;;1044422;28;3830;-50
2022/07/01 02:05:13;;;;;;;;;;;;;;;;;;1043628;28;3304;-46
2022/07/01 02:05:43;;;;;;;;;;;;;;;;;;1045008;28;1548;-46
2022/07/01 02:06:15;;;;;;;;;;;;;;;;;;1045420;28;1897;-50
2022/07/01 02:06:45;;;;;;;;;;;;;;;;;;1043955;28;2871;-49
2022/07/01 02:07:15;;;;;;;;;;;;;;;;;;1044476;28;1864;-47
2022/07/01 02:07:46;;;;;;;;;;;;;;;;;;1039792;28;2002;-48
2022/07/01 02:08:16;;;;;;;;;;;;;;;;;;1039398;28;2056;-49
2022/07/01 02:08:48;;;;;;;;;;;;;;;;;;1041902;28;3615;-47
2022/07/01 02:09:18;;;;;;;;;;;;;;;;;;1040816;28;2468;-48
2022/07/01 02:09:48;;;;;;;;;;;;;;;;;;1045236;28;1636;-48
2022/07/01 02:10:19;;;;;;;;;;;;;;;;;;1043794;28;2951;-49
2022/07/01 02:10:49;;;;;;;;;;;;;;;;;;1043327;28;3769;-48
2022/07/01 02:11:19;;;;;;;;;;;;;;;;;;1044652;28;2204;-47
2022/07/01 02:11:50;;;;;;;;;;;;;;;;;;1045034;28;1715;-48
2022/07/01 02:12:20;;;;;;;;;;;;;;;;;;1042991;28;3598;-48
2022/07/01 02:12:50;;;;;;;;;;;;;;;;;;1044473;28;3960;-47
2022/07/01 02:13:21;;;;;;;;;;;;;;;;;;1043815;28;2442;-48
2022/07/01 02:13:51;;;;;;;;;;;;;;;;;;1045249;28;1883;-51
2022/07/01 02:14:21;;;;;;;;;;;;;;;;;;1044924;28;1997;-51
2022/07/01 02:14:52;;;;;;;;;;;;;;;;;;1043504;28;3500;-48
2022/07/01 02:15:22;;;;;;;;;;;;;;;;;;1043370;28;2812;-47
2022/07/01 02:15:52;;;;;;;;;;;;;;;;;;1044333;28;1690;-47
2022/07/01 02:16:22;;;;;;;;;;;;;;;;;;1044418;28;1627;-50
2022/07/01 02:16:53;;;;;;;;;;;;;;;;;;1044327;28;2165;-47
2022/07/01 02:17:25;;;;;;;;;;;;;;;;;;1044984;28;2797;-48
2022/07/01 02:17:56;;;;;;;;;;;;;;;;;;1044549;28;3027;-47
2022/07/01 02:18:27;;;;;;;;;;;;;;;;;;1040169;28;3023;-48
2022/07/01 02:18:57;;;;;;;;;;;;;;;;;;1040869;28;1675;-47
2022/07/01 02:19:28;;;;;;;;;;;;;;;;;;1040787;28;3770;-46
2022/07/01 02:19:58;;;;;;;;;;;;;;;;;;1037269;28;1621;-46
2022/07/01 02:20:28;;;;;;;;;;;;;;;;;;1035369;28;3272;-46
2022/07/01 02:20:59;;;;;;;;;;;;;;;;;;1040115;28;2682;-48
2022/07/01 02:21:29;;;;;;;;;;;;;;;;;;1039722;28;1712;-50
2022/07/01 02:22:00;;;;;;;;;;;;;;;;;;1045133;28;2223;-49
2022/07/01 02:22:30;;;;;;;;;;;;;;;;;;1034336;28;3594;-46
2022/07/01 02:23:00;;;;;;;;;;;;;;;;;;1037867;28;3690;-46
2022/07/01 02:23:31;;;;;;;;;;;;;;;;;;1037954;28;2042;-47
2022/07/01 02:24:04;;;;;;;;;;;;;;;;;;1036282;28;2708;-50
2022/07/01 02:24:35;;;;;;;;;;;;;;;;;;1036335;28;2479;-48
2022/07/01 02:25:05;;;;;;;;;;;;;;;;;;1037545;28;3737;-44
2022/07/01 02:25:49;;;;;;;;;;;;;;;;;;1036557;28;1957;-47
2022/07/01 02:26:26;;;;;;;;;;;;;;;;;;1038569;28;3336;-46
2022/07/01 02:26:56;;;;;;;;;;;;;;;;;;1040250;28;3193;-48
2022/07/01 02:27:26;;;;;;;;;;;;;;;;;;1041674;28;1691;-48
2022/07/01 02:27:58;;;;;;;;;;;;;;;;;;1043617;28;3604;-47
2022/07/01 02:28:28;;;;;;;;;;;;;;;;;;1045636;28;2287;-49
2022/07/01 02:28:59;;;;;;;;;;;;;;;;;;1046581;28;1661;-46
2022/07/01 02:29:29;;;;;;;;;;;;;;;;;;1048906;28;1581;-49
2022/07/01 02:29:59;;;;;;;;;;;;;;;;;;1039671;28;2597;-47
2022/07/01 02:30:30;;;;;;;;;;;;;;;;;;1040183;28;3122;-49
2022/07/01 02:31:02;;;;;;;;;;;;;;;;;;1040089;28;1680;-47
2022/07/01 02:31:32;;;;;;;;;;;;;;;;;;1042367;28;1658;-48
2022/07/01 02:32:03;;;;;;;;;;;;;;;;;;1039877;28;3107;-48
2022/07/01 02:32:33;;;;;;;;;;;;;;;;;;1048594;28;2151;-47
2022/07/01 02:33:10;;;;;;;;;;;;;;;;;;1047407;28;3837;-46
2022/07/01 02:33:40;;;;;;;;;;;;;;;;;;1048474;28;3205;-48
2022/07/01 02:34:11;;;;;;;;;;;;;;;;;;1043147;28;3329;-47
2022/07/01 02:34:41;;;;;;;;;;;;;;;;;;1040428;28;2270;-46
2022/07/01 02:35:11;;;;;;;;;;;;;;;;;;1039458;28;3167;-49
2022/07/01 02:35:41;;;;;;;;;;;;;;;;;;1041753;28;1528;-49
2022/07/01 02:36:12;;;;;;;;;;;;;;;;;;1041040;28;2201;-48
2022/07/01 02:36:42;;;;;;;;;;;;;;;;;;1043622;28;2333;-46
2022/07/01 02:37:12;;;;;;;;;;;;;;;;;;1042440;28;2369;-47
2022/07/01 02:37:43;;;;;;;;;;;;;;;;;;1043265;28;3288;-47
2022/07/01 02:38:13;;;;;;;;;;;;;;;;;;1041783;28;4475;-48
2022/07/01 02:38:43;;;;;;;;;;;;;;;;;;1041530;28;3204;-49
2022/07/01 02:39:13;;;;;;;;;;;;;;;;;;1039024;28;3293;-48
2022/07/01 02:39:44;;;;;;;;;;;;;;;;;;1040969;28;2230;-48
2022/07/01 02:40:14;;;;;;;;;;;;;;;;;;1038732;28;3302;-48
2022/07/01 02:40:44;;;;;;;;;;;;;;;;;;1038505;28;2796;-46
2022/07/01 02:41:15;;;;;;;;;;;;;;;;;;1040241;28;1837;-50
2022/07/01 02:42:35;;;;;;;;;;;;;;;;;;1040242;28;3684;-48
2022/07/01 02:43:05;;;;;;;;;;;;;;;;;;1041362;28;1878;-47
2022/07/01 02:43:36;;;;;;;;;;;;;;;;;;1038924;28;3605;-48
2022/07/01 02:44:06;;;;;;;;;;;;;;;;;;1038890;28;4390;-46
2022/07/01 02:44:37;;;;;;;;;;;;;;;;;;1039758;28;3119;-48
2022/07/01 02:45:08;;;;;;;;;;;;;;;;;;1039098;28;2870;-47
2022/07/01 02:45:38;;;;;;;;;;;;;;;;;;1040708;28;3778;-46
2022/07/01 02:46:08;;;;;;;;;;;;;;;;;;1039642;28;3860;-48
2022/07/01 02:46:39;;;;;;;;;;;;;;;;;;1045518;28;3731;-48
2022/07/01 02:47:09;;;;;;;;;;;;;;;;;;1043881;28;2750;-46
2022/07/01 02:47:40;;;;;;;;;;;;;;;;;;1049553;28;1578;-50
2022/07/01 02:48:10;;;;;;;;;;;;;;;;;;1045935;28;3197;-50
2022/07/01 02:48:40;;;;;;;;;;;;;;;;;;1041029;28;1539;-47
2022/07/01 02:49:11;;;;;;;;;;;;;;;;;;1040843;28;2036;-48
2022/07/01 02:49:41;;;;;;;;;;;;;;;;;;1040934;28;1855;-45
2022/07/01 02:50:12;;;;;;;;;;;;;;;;;;1046758;28;3075;-48
2022/07/01 02:50:42;;;;;;;;;;;;;;;;;;1047579;28;3211;-52
2022/07/01 02:51:13;;;;;;;;;;;;;;;;;;1047865;28;2041;-48
2022/07/01 02:51:43;;;;;;;;;;;;;;;;;;1048313;28;3335;-46
2022/07/01 02:52:15;;;;;;;;;;;;;;;;;;1039810;28;2794;-47
2022/07/01 02:52:45;;;;;;;;;;;;;;;;;;1048487;28;4555;-50
2022/07/01 02:53:15;;;;;;;;;;;;;;;;;;1041103;28;1685;-47
2022/07/01 02:53:46;;;;;;;;;;;;;;;;;;1042576;28;1641;-46
2022/07/01 02:54:16;;;;;;;;;;;;;;;;;;1040698;28;2438;-48
2022/07/01 02:54:46;;;;;;;;;;;;;;;;;;1038636;28;3537;-49
2022/07/01 02:55:16;;;;;;;;;;;;;;;;;;1039701;28;2184;-45
2022/07/01 02:55:47;;;;;;;;;;;;;;;;;;1040606;28;1640;-50
2022/07/01 02:56:17;;;;;;;;;;;;;;;;;;1040061;28;2975;-45
2022/07/01 02:56:47;;;;;;;;;;;;;;;;;;1040721;28;1726;-47
2022/07/01 02:57:17;;;;;;;;;;;;;;;;;;1038530;28;3271;-48
2022/07/01 02:57:51;;;;;;;;;;;;;;;;;;1040530;28;3385;-50
2022/07/01 02:58:22;;;;;;;;;;;;;;;;;;1039847;28;2686;-49
2022/07/01 02:58:52;;;;;;;;;;;;;;;;;;1039851;28;3127;-47
2022/07/01 02:59:22;;;;;;;;;;;;;;;;;;1038168;28;2480;-46
2022/07/01 02:59:53;;;;;;;;;;;;;;;;;;1040621;28;1701;-50
2022/07/01 03:00:23;;;;;;;;;;;;;;;;;;1040121;28;2653;-47
2022/07/01 03:00:54;;;;;;;;;;;;;;;;;;1038645;28;3032;-50
2022/07/01 03:01:24;;;;;;;;;;;;;;;;;;1039672;28;2804;-46
2022/07/01 03:01:54;;;;;;;;;;;;;;;;;;1039166;28;3402;-47
2022/07/01 03:02:24;;;;;;;;;;;;;;;;;;1040326;28;4083;-48
2022/07/01 03:02:55;;;;;;;;;;;;;;;;;;1039819;28;3665;-49
2022/07/01 03:03:26;;;;;;;;;;;;;;;;;;1039588;28;3740;-48
2022/07/01 03:03:56;;;;;;;;;;;;;;;;;;1040552;28;1778;-47
2022/07/01 03:04:26;;;;;;;;;;;;;;;;;;1039941;28;2166;-50
2022/07/01 03:04:57;;;;;;;;;;;;;;;;;;1040581;28;1767;-49
2022/07/01 03:05:27;;;;;;;;;;;;;;;;;;1038783;28;3133;-52
2022/07/01 03:05:57;;;;;;;;;;;;;;;;;;1040844;28;2234;-48
2022/07/01 03:06:27;;;;;;;;;;;;;;;;;;1040347;28;3697;-47
2022/07/01 03:06:58;;;;;;;;;;;;;;;;;;1039241;28;3956;-47
2022/07/01 03:07:28;;;;;;;;;;;;;;;;;;1039267;28;2937;-47
2022/07/01 03:07:58;;;;;;;;;;;;;;;;;;1039114;28;3813;-48
2022/07/01 03:08:29;;;;;;;;;;;;;;;;;;1041573;28;1309;-47
2022/07/01 03:08:59;;;;;;;;;;;;;;;;;;1038525;28;3093;-47
2022/07/01 03:09:29;;;;;;;;;;;;;;;;;;1040522;28;1664;-48
2022/07/01 03:09:59;;;;;;;;;;;;;;;;;;1039836;28;1758;-49
2022/07/01 03:10:32;;;;;;;;;;;;;;;;;;1041429;28;1593;-50
2022/07/01 03:11:03;;;;;;;;;;;;;;;;;;1039784;28;3976;-47
2022/07/01 03:11:33;;;;;;;;;;;;;;;;;;1041199;28;1697;-47
2022/07/01 03:12:24;;;;;;;;;;;;;;;;;;1039402;28;2462;-48
2022/07/01 03:12:54;;;;;;;;;;;;;;;;;;1039377;28;2435;-49
2022/07/01 03:13:24;;;;;;;;;;;;;;;;;;1041396;28;1438;-48
2022/07/01 03:13:54;;;;;;;;;;;;;;;;;;1040566;28;2011;-45
2022/07/01 03:14:25;;;;;;;;;;;;;;;;;;1039666;28;3039;-47
2022/07/01 03:14:57;;;;;;;;;;;;;;;;;;1040446;28;2908;-45
2022/07/01 03:15:28;;;;;;;;;;;;;;;;;;1040153;28;2064;-49
2022/07/01 03:15:58;;;;;;;;;;;;;;;;;;1040851;28;1960;-47
2022/07/01 03:16:28;;;;;;;;;;;;;;;;;;1041618;28;3534;-50
2022/07/01 03:16:59;;;;;;;;;;;;;;;;;;1044131;28;2464;-47
2022/07/01 03:17:31;;;;;;;;;;;;;;;;;;1042932;28;3573;-46
2022/07/01 03:18:01;;;;;;;;;;;;;;;;;;1042262;28;4495;-47
2022/07/01 03:18:32;;;;;;;;;;;;;;;;;;1038666;28;3691;-46
2022/07/01 03:19:02;;;;;;;;;;;;;;;;;;1039434;28;1902;-49
2022/07/01 03:19:32;;;;;;;;;;;;;;;;;;1039720;28;1753;-45
2022/07/01 03:20:04;;;;;;;;;;;;;;;;;;1040814;28;2213;-47
2022/07/01 03:20:34;;;;;;;;;;;;;;;;;;1039055;28;2422;-47
2022/07/01 03:21:04;;;;;;;;;;;;;;;;;;1047755;28;3735;-45
2022/07/01 03:21:35;;;;;;;;;;;;;;;;;;1047736;28;1962;-49
2022/07/01 03:22:05;;;;;;;;;;;;;;;;;;1047333;28;4355;-47
2022/07/01 03:22:36;;;;;;;;;;;;;;;;;;1047487;28;3405;-46
2022/07/01 03:23:06;;;;;;;;;;;;;;;;;;1040186;28;1601;-50
2022/07/01 03:23:37;;;;;;;;;;;;;;;;;;1040143;28;2656;-50
2022/07/01 03:24:07;;;;;;;;;;;;;;;;;;1040109;28;2652;-46
2022/07/01 03:24:37;;;;;;;;;;;;;;;;;;1039184;28;2676;-48
2022/07/01 03:25:08;;;;;;;;;;;;;;;;;;1040766;28;1458;-49
2022/07/01 03:25:52;;;;;;;;;;;;;;;;;;1040160;28;2891;-46
2022/07/01 03:26:29;;;;;;;;;;;;;;;;;;1039195;28;2817;-49
2022/07/01 03:26:59;;;;;;;;;;;;;;;;;;1039901;28;4101;-46
2022/07/01 03:27:29;;;;;;;;;;;;;;;;;;1038701;28;3764;-47
2022/07/01 03:28:06;;;;;;;;;;;;;;;;;;1047498;28;2536;-46
2022/07/01 03:28:37;;;;;;;;;;;;;;;;;;1047403;28;2307;-49
2022/07/01 03:29:07;;;;;;;;;;;;;;;;;;1047475;28;2922;-49
2022/07/01 03:29:37;;;;;;;;;;;;;;;;;;1042829;28;1955;-46
2022/07/01 03:30:08;;;;;;;;;;;;;;;;;;1043506;28;3082;-48
2022/07/01 03:30:38;;;;;;;;;;;;;;;;;;1042179;28;4584;-48
2022/07/01 03:31:08;;;;;;;;;;;;;;;;;;1043149;28;3799;-48
2022/07/01 03:31:38;;;;;;;;;;;;;;;;;;1046649;28;4049;-45
2022/07/01 03:32:09;;;;;;;;;;;;;;;;;;1038195;28;4160;-48
2022/07/01 03:32:39;;;;;;;;;;;;;;;;;;1039863;28;2918;-48
2022/07/01 03:33:10;;;;;;;;;;;;;;;;;;1040573;28;1906;-48
2022/07/01 03:33:40;;;;;;;;;;;;;;;;;;1038748;28;3674;-46
2022/07/01 03:34:10;;;;;;;;;;;;;;;;;;1040025;28;3223;-48
2022/07/01 03:34:42;;;;;;;;;;;;;;;;;;1040786;28;2330;-46
2022/07/01 03:36:14;;;;;;;;;;;;;;;;;;1036321;28;1932;-47
2022/07/01 03:36:45;;;;;;;;;;;;;;;;;;1034734;28;3003;-48